sensor_id;sensor_type;location;lat;lon;timestamp;pressure;altitude;pressure_sealevel;temperature;humidity
10652;BME280;5374;42.742;23.266;2023-04-06T00:01:26;95255.50;;;2.00;82.67
10652;BME280;5374;42.742;23.266;2023-04-06T00:04:14;95258.50;;;1.97;82.93
10652;BME280;5374;42.742;23.266;2023-04-06T00:07:01;95250.25;;;2.00;82.85
10652;BME280;5374;42.742;23.266;2023-04-06T00:09:48;95247.63;;;1.93;83.18
10652;BME280;5374;42.742;23.266;2023-04-06T00:12:35;95243.38;;;1.92;83.80
10652;BME280;5374;42.742;23.266;2023-04-06T00:15:24;95245.22;;;1.98;83.26
10652;BME280;5374;42.742;23.266;2023-04-06T00:18:11;95211.56;;;1.82;83.44
10652;BME280;5374;42.742;23.266;2023-04-06T00:20:59;95228.09;;;1.96;83.36
10652;BME280;5374;42.742;23.266;2023-04-06T00:23:46;95230.72;;;2.02;83.38
10652;BME280;5374;42.742;23.266;2023-04-06T00:26:33;95228.88;;;2.10;82.80
10652;BME280;5374;42.742;23.266;2023-04-06T00:29:20;95225.06;;;2.12;82.19
10652;BME280;5374;42.742;23.266;2023-04-06T00:32:09;95223.25;;;2.13;81.92
10652;BME280;5374;42.742;23.266;2023-04-06T00:34:56;95219.44;;;2.15;81.09
10652;BME280;5374;42.742;23.266;2023-04-06T00:37:46;95192.44;;;2.01;80.78
10652;BME280;5374;42.742;23.266;2023-04-06T00:40:33;95217.81;;;2.01;80.91
10652;BME280;5374;42.742;23.266;2023-04-06T00:43:21;95214.38;;;2.07;80.71
10652;BME280;5374;42.742;23.266;2023-04-06T00:46:09;95211.16;;;2.12;80.05
10652;BME280;5374;42.742;23.266;2023-04-06T00:48:58;95210.75;;;2.08;79.90
10652;BME280;5374;42.742;23.266;2023-04-06T00:51:45;95202.94;;;2.01;79.95
10652;BME280;5374;42.742;23.266;2023-04-06T00:54:33;95206.72;;;2.12;79.55
10652;BME280;5374;42.742;23.266;2023-04-06T00:57:20;95216.00;;;2.08;79.61
10652;BME280;5374;42.742;23.266;2023-04-06T01:00:07;95208.75;;;2.03;79.55
10652;BME280;5374;42.742;23.266;2023-04-06T01:02:58;95194.06;;;2.02;79.07
10652;BME280;5374;42.742;23.266;2023-04-06T01:05:47;95209.94;;;2.14;78.98
10652;BME280;5374;42.742;23.266;2023-04-06T01:08:34;95207.94;;;2.10;79.24
10652;BME280;5374;42.742;23.266;2023-04-06T01:11:21;95209.56;;;2.17;79.44
10652;BME280;5374;42.742;23.266;2023-04-06T01:14:08;95203.50;;;2.23;79.17
10652;BME280;5374;42.742;23.266;2023-04-06T01:16:57;95197.47;;;2.23;79.03
10652;BME280;5374;42.742;23.266;2023-04-06T01:19:45;95201.06;;;2.35;78.62
10652;BME280;5374;42.742;23.266;2023-04-06T01:22:36;95193.59;;;2.32;79.05
10652;BME280;5374;42.742;23.266;2023-04-06T01:25:23;95200.47;;;2.33;78.94
10652;BME280;5374;42.742;23.266;2023-04-06T01:28:10;95195.00;;;2.41;78.46
10652;BME280;5374;42.742;23.266;2023-04-06T01:30:57;95186.59;;;2.26;78.95
10652;BME280;5374;42.742;23.266;2023-04-06T01:33:44;95189.78;;;2.34;78.85
10652;BME280;5374;42.742;23.266;2023-04-06T01:36:32;95192.00;;;2.37;78.78
10652;BME280;5374;42.742;23.266;2023-04-06T01:39:21;95181.09;;;2.34;78.61
10652;BME280;5374;42.742;23.266;2023-04-06T01:42:08;95195.41;;;2.31;78.72
10652;BME280;5374;42.742;23.266;2023-04-06T01:44:55;95183.31;;;2.37;78.19
10652;BME280;5374;42.742;23.266;2023-04-06T01:47:42;95180.09;;;2.35;78.35
10652;BME280;5374;42.742;23.266;2023-04-06T01:50:30;95176.31;;;2.24;78.36
10652;BME280;5374;42.742;23.266;2023-04-06T01:53:17;95181.53;;;2.24;78.65
10652;BME280;5374;42.742;23.266;2023-04-06T01:56:06;95185.34;;;2.28;78.89
10652;BME280;5374;42.742;23.266;2023-04-06T01:58:53;95154.97;;;2.14;78.76
10652;BME280;5374;42.742;23.266;2023-04-06T02:01:41;95164.81;;;2.19;78.14
10652;BME280;5374;42.742;23.266;2023-04-06T02:04:29;95175.72;;;2.22;78.23
10652;BME280;5374;42.742;23.266;2023-04-06T02:07:16;95173.09;;;2.16;78.46
10652;BME280;5374;42.742;23.266;2023-04-06T02:10:04;95170.88;;;2.13;79.28
10652;BME280;5374;42.742;23.266;2023-04-06T02:12:52;95170.47;;;2.16;79.66
10652;BME280;5374;42.742;23.266;2023-04-06T02:15:40;95175.31;;;2.19;79.77
10652;BME280;5374;42.742;23.266;2023-04-06T02:18:27;95176.31;;;2.18;79.88
10652;BME280;5374;42.742;23.266;2023-04-06T02:21:14;95162.81;;;2.21;79.59
10652;BME280;5374;42.742;23.266;2023-04-06T02:24:06;95142.31;;;1.98;79.88
10652;BME280;5374;42.742;23.266;2023-04-06T02:26:53;95165.22;;;2.16;80.54
10652;BME280;5374;42.742;23.266;2023-04-06T02:29:41;95075.31;;;1.51;80.78
10652;BME280;5374;42.742;23.266;2023-04-06T02:32:29;95166.03;;;2.16;80.44
10652;BME280;5374;42.742;23.266;2023-04-06T02:35:16;95172.09;;;2.10;80.90
10652;BME280;5374;42.742;23.266;2023-04-06T02:38:03;95170.88;;;2.13;81.41
10652;BME280;5374;42.742;23.266;2023-04-06T02:40:51;95162.41;;;2.17;81.33
10652;BME280;5374;42.742;23.266;2023-04-06T02:43:38;95171.47;;;2.21;81.48
10652;BME280;5374;42.742;23.266;2023-04-06T02:46:26;95162.19;;;2.25;81.42
10652;BME280;5374;42.742;23.266;2023-04-06T02:49:13;95159.59;;;2.25;81.27
10652;BME280;5374;42.742;23.266;2023-04-06T02:52:03;95168.81;;;2.34;81.26
10652;BME280;5374;42.742;23.266;2023-04-06T02:54:50;95161.41;;;2.25;81.49
10652;BME280;5374;42.742;23.266;2023-04-06T02:57:37;95165.19;;;2.29;81.23
10652;BME280;5374;42.742;23.266;2023-04-06T03:00:25;95159.56;;;2.32;81.22
10652;BME280;5374;42.742;23.266;2023-04-06T03:03:13;95153.91;;;2.28;81.53
10652;BME280;5374;42.742;23.266;2023-04-06T03:06:01;95164.78;;;2.32;81.49
10652;BME280;5374;42.742;23.266;2023-04-06T03:08:48;95170.84;;;2.32;81.60
10652;BME280;5374;42.742;23.266;2023-04-06T03:11:36;95155.97;;;2.20;81.76
10652;BME280;5374;42.742;23.266;2023-04-06T03:14:27;95164.44;;;2.22;81.70
10652;BME280;5374;42.742;23.266;2023-04-06T03:17:15;95163.00;;;2.26;81.90
10652;BME280;5374;42.742;23.266;2023-04-06T03:20:04;95158.97;;;2.17;82.05
10652;BME280;5374;42.742;23.266;2023-04-06T03:22:51;95151.34;;;2.15;82.76
10652;BME280;5374;42.742;23.266;2023-04-06T03:25:38;95165.63;;;2.26;82.52
10652;BME280;5374;42.742;23.266;2023-04-06T03:28:26;95158.59;;;2.20;82.36
10652;BME280;5374;42.742;23.266;2023-04-06T03:31:13;95147.09;;;2.21;82.72
10652;BME280;5374;42.742;23.266;2023-04-06T03:34:00;95163.16;;;2.37;82.41
10652;BME280;5374;42.742;23.266;2023-04-06T03:36:48;95155.13;;;2.32;82.65
10652;BME280;5374;42.742;23.266;2023-04-06T03:39:36;95154.50;;;2.37;82.44
10652;BME280;5374;42.742;23.266;2023-04-06T03:42:23;95153.91;;;2.28;82.80
10652;BME280;5374;42.742;23.266;2023-04-06T03:45:10;95159.34;;;2.33;82.91
10652;BME280;5374;42.742;23.266;2023-04-06T03:47:58;95153.53;;;2.25;82.90
10652;BME280;5374;42.742;23.266;2023-04-06T03:50:45;95157.34;;;2.29;83.59
10652;BME280;5374;42.742;23.266;2023-04-06T03:53:34;95158.78;;;2.25;83.65
10652;BME280;5374;42.742;23.266;2023-04-06T03:56:24;95164.44;;;2.22;84.11
10652;BME280;5374;42.742;23.266;2023-04-06T03:59:12;95158.38;;;2.08;85.12
10652;BME280;5374;42.742;23.266;2023-04-06T04:01:59;95147.50;;;2.04;85.37
10652;BME280;5374;42.742;23.266;2023-04-06T04:04:46;95162.81;;;2.14;85.51
10652;BME280;5374;42.742;23.266;2023-04-06T04:07:33;95155.16;;;2.13;85.82
10652;BME280;5374;42.742;23.266;2023-04-06T04:10:22;95151.72;;;2.19;85.42
10652;BME280;5374;42.742;23.266;2023-04-06T04:13:09;95145.09;;;2.10;85.06
10652;BME280;5374;42.742;23.266;2023-04-06T04:15:56;95155.16;;;2.26;84.17
10652;BME280;5374;42.742;23.266;2023-04-06T04:18:43;95141.25;;;2.12;84.18
10652;BME280;5374;42.742;23.266;2023-04-06T04:21:32;95152.28;;;2.27;84.41
10652;BME280;5374;42.742;23.266;2023-04-06T04:24:20;95160.41;;;2.26;83.98
10652;BME280;5374;42.742;23.266;2023-04-06T04:27:08;95156.72;;;2.27;84.94
10652;BME280;5374;42.742;23.266;2023-04-06T04:29:56;95160.75;;;2.29;85.07
10652;BME280;5374;42.742;23.266;2023-04-06T04:32:43;95158.34;;;2.34;84.82
10652;BME280;5374;42.742;23.266;2023-04-06T04:35:30;95160.97;;;2.34;84.97
10652;BME280;5374;42.742;23.266;2023-04-06T04:38:17;95158.53;;;2.39;85.01
10652;BME280;5374;42.742;23.266;2023-04-06T04:41:05;95156.31;;;2.43;85.24
10652;BME280;5374;42.742;23.266;2023-04-06T04:43:53;95161.91;;;2.53;84.71
10652;BME280;5374;42.742;23.266;2023-04-06T04:46:43;95159.88;;;2.55;84.05
10652;BME280;5374;42.742;23.266;2023-04-06T04:49:30;95164.13;;;2.56;83.00
10652;BME280;5374;42.742;23.266;2023-04-06T04:52:18;95127.28;;;2.38;82.76
10652;BME280;5374;42.742;23.266;2023-04-06T04:55:06;95162.31;;;2.50;81.80
10652;BME280;5374;42.742;23.266;2023-04-06T04:57:53;95157.88;;;2.51;80.54
10652;BME280;5374;42.742;23.266;2023-04-06T05:00:41;95156.47;;;2.55;80.03
10652;BME280;5374;42.742;23.266;2023-04-06T05:03:29;95166.56;;;2.51;79.66
10652;BME280;5374;42.742;23.266;2023-04-06T05:06:17;95159.50;;;2.52;79.85
10652;BME280;5374;42.742;23.266;2023-04-06T05:09:05;95167.16;;;2.53;79.98
10652;BME280;5374;42.742;23.266;2023-04-06T05:11:52;95152.22;;;2.60;79.94
10652;BME280;5374;42.742;23.266;2023-04-06T05:14:39;95161.47;;;2.69;79.15
10652;BME280;5374;42.742;23.266;2023-04-06T05:17:28;95157.84;;;2.70;79.27
10652;BME280;5374;42.742;23.266;2023-04-06T05:20:16;95146.38;;;2.65;78.56
10652;BME280;5374;42.742;23.266;2023-04-06T05:23:03;95155.56;;;2.81;78.89
10652;BME280;5374;42.742;23.266;2023-04-06T05:25:50;95151.34;;;2.80;78.67
10652;BME280;5374;42.742;23.266;2023-04-06T05:28:41;95160.16;;;2.92;78.89
10652;BME280;5374;42.742;23.266;2023-04-06T05:31:30;95165.63;;;2.90;78.58
10652;BME280;5374;42.742;23.266;2023-04-06T05:34:18;95157.69;;;2.97;78.05
10652;BME280;5374;42.742;23.266;2023-04-06T05:37:17;95089.72;;;2.57;77.68
10652;BME280;5374;42.742;23.266;2023-04-06T05:40:06;95105.03;;;2.60;77.05
10652;BME280;5374;42.742;23.266;2023-04-06T05:42:53;95095.19;;;2.56;76.98
10652;BME280;5374;42.742;23.266;2023-04-06T05:45:41;95159.69;;;3.01;77.07
10652;BME280;5374;42.742;23.266;2023-04-06T05:48:30;95137.41;;;2.86;76.82
10652;BME280;5374;42.742;23.266;2023-04-06T05:51:19;95152.50;;;2.90;77.84
10652;BME280;5374;42.742;23.266;2023-04-06T05:54:06;95149.69;;;2.92;77.16
10652;BME280;5374;42.742;23.266;2023-04-06T05:56:53;95148.06;;;2.91;77.29
10652;BME280;5374;42.742;23.266;2023-04-06T05:59:40;95151.28;;;2.93;77.10
10652;BME280;5374;42.742;23.266;2023-04-06T06:02:30;95109.84;;;2.70;76.72
10652;BME280;5374;42.742;23.266;2023-04-06T06:05:18;95150.50;;;2.92;76.63
10652;BME280;5374;42.742;23.266;2023-04-06T06:08:07;95173.84;;;3.00;77.03
10652;BME280;5374;42.742;23.266;2023-04-06T06:10:54;95133.94;;;2.92;76.60
10652;BME280;5374;42.742;23.266;2023-04-06T06:13:41;95135.06;;;3.09;76.96
10652;BME280;5374;42.742;23.266;2023-04-06T06:16:28;95136.59;;;3.17;77.31
10652;BME280;5374;42.742;23.266;2023-04-06T06:19:15;95136.19;;;3.20;76.63
10652;BME280;5374;42.742;23.266;2023-04-06T06:22:02;95142.44;;;3.25;75.19
10652;BME280;5374;42.742;23.266;2023-04-06T06:24:52;95146.66;;;3.26;74.76
10652;BME280;5374;42.742;23.266;2023-04-06T06:27:39;95140.16;;;3.35;74.41
10652;BME280;5374;42.742;23.266;2023-04-06T06:30:27;95146.94;;;3.43;75.12
10652;BME280;5374;42.742;23.266;2023-04-06T06:33:15;95117.63;;;3.21;75.08
10652;BME280;5374;42.742;23.266;2023-04-06T06:36:03;95152.13;;;3.56;74.60
10652;BME280;5374;42.742;23.266;2023-04-06T06:38:50;95124.19;;;3.37;73.43
10652;BME280;5374;42.742;23.266;2023-04-06T06:41:38;95135.06;;;3.65;73.36
10652;BME280;5374;42.742;23.266;2023-04-06T06:44:26;95153.53;;;3.84;72.95
10652;BME280;5374;42.742;23.266;2023-04-06T06:47:14;95143.38;;;3.87;72.78
10652;BME280;5374;42.742;23.266;2023-04-06T06:50:01;95146.00;;;3.87;71.94
10652;BME280;5374;42.742;23.266;2023-04-06T06:52:49;95132.53;;;3.84;71.92
10652;BME280;5374;42.742;23.266;2023-04-06T06:55:36;95148.16;;;3.97;71.74
10652;BME280;5374;42.742;23.266;2023-04-06T06:58:25;95147.72;;;4.00;70.90
10652;BME280;5374;42.742;23.266;2023-04-06T07:01:12;95086.13;;;3.53;71.40
10652;BME280;5374;42.742;23.266;2023-04-06T07:04:00;95152.06;;;4.12;72.06
10652;BME280;5374;42.742;23.266;2023-04-06T07:06:47;95161.84;;;4.05;70.89
10652;BME280;5374;42.742;23.266;2023-04-06T07:09:35;95155.06;;;4.16;71.29
10652;BME280;5374;42.742;23.266;2023-04-06T07:12:22;95158.22;;;4.25;70.96
10652;BME280;5374;42.742;23.266;2023-04-06T07:15:11;95151.41;;;4.35;70.47
10652;BME280;5374;42.742;23.266;2023-04-06T07:17:58;95158.28;;;4.36;69.90
10652;BME280;5374;42.742;23.266;2023-04-06T07:20:45;95156.47;;;4.55;69.53
10652;BME280;5374;42.742;23.266;2023-04-06T07:23:32;95158.00;;;4.63;68.63
10652;BME280;5374;42.742;23.266;2023-04-06T07:26:20;95147.19;;;4.53;68.76
10652;BME280;5374;42.742;23.266;2023-04-06T07:29:07;95153.41;;;4.76;68.11
10652;BME280;5374;42.742;23.266;2023-04-06T07:31:55;95157.28;;;4.92;68.04
10652;BME280;5374;42.742;23.266;2023-04-06T07:34:43;95145.63;;;5.00;67.24
10652;BME280;5374;42.742;23.266;2023-04-06T07:37:32;95151.19;;;5.10;67.32
10652;BME280;5374;42.742;23.266;2023-04-06T07:40:19;95148.09;;;5.13;66.05
10652;BME280;5374;42.742;23.266;2023-04-06T07:43:07;95147.34;;;5.24;66.62
10652;BME280;5374;42.742;23.266;2023-04-06T07:45:54;95143.81;;;5.72;65.79
10652;BME280;5374;42.742;23.266;2023-04-06T07:48:44;95146.75;;;6.05;63.73
10652;BME280;5374;42.742;23.266;2023-04-06T07:51:32;95151.56;;;6.08;63.37
10652;BME280;5374;42.742;23.266;2023-04-06T07:54:22;95150.28;;;6.34;64.03
10652;BME280;5374;42.742;23.266;2023-04-06T07:57:09;95151.31;;;6.68;61.82
10652;BME280;5374;42.742;23.266;2023-04-06T07:59:56;95153.09;;;6.79;59.88
10652;BME280;5374;42.742;23.266;2023-04-06T08:02:43;95151.88;;;6.70;59.58
10652;BME280;5374;42.742;23.266;2023-04-06T08:05:32;95146.91;;;6.85;59.82
10652;BME280;5374;42.742;23.266;2023-04-06T08:08:19;95138.81;;;6.75;58.84
10652;BME280;5374;42.742;23.266;2023-04-06T08:11:08;95154.63;;;6.75;59.56
10652;BME280;5374;42.742;23.266;2023-04-06T08:13:56;95141.63;;;6.85;60.71
10652;BME280;5374;42.742;23.266;2023-04-06T08:16:44;95141.47;;;7.32;59.73
10652;BME280;5374;42.742;23.266;2023-04-06T08:19:31;95143.09;;;7.50;58.19
10652;BME280;5374;42.742;23.266;2023-04-06T08:22:20;95147.16;;;8.03;57.27
10652;BME280;5374;42.742;23.266;2023-04-06T08:25:07;95139.56;;;7.89;56.87
10652;BME280;5374;42.742;23.266;2023-04-06T08:27:54;95141.25;;;8.12;57.44
10652;BME280;5374;42.742;23.266;2023-04-06T08:30:42;95137.06;;;8.16;56.35
10652;BME280;5374;42.742;23.266;2023-04-06T08:33:29;95153.56;;;8.57;54.72
10652;BME280;5374;42.742;23.266;2023-04-06T08:36:17;95146.81;;;8.66;54.89
10652;BME280;5374;42.742;23.266;2023-04-06T08:39:09;95158.34;;;8.60;54.41
10652;BME280;5374;42.742;23.266;2023-04-06T08:41:56;95149.75;;;8.70;54.63
10652;BME280;5374;42.742;23.266;2023-04-06T08:44:46;95153.91;;;9.26;54.26
10652;BME280;5374;42.742;23.266;2023-04-06T08:47:34;95156.66;;;9.36;50.94
10652;BME280;5374;42.742;23.266;2023-04-06T08:50:21;95163.28;;;9.60;52.40
10652;BME280;5374;42.742;23.266;2023-04-06T08:53:11;95157.84;;;9.50;51.71
10652;BME280;5374;42.742;23.266;2023-04-06T08:56:01;95148.41;;;9.33;50.99
10652;BME280;5374;42.742;23.266;2023-04-06T08:58:49;95153.00;;;9.96;51.44
10652;BME280;5374;42.742;23.266;2023-04-06T09:01:39;95158.66;;;10.37;50.92
10652;BME280;5374;42.742;23.266;2023-04-06T09:04:27;95160.00;;;10.39;49.24
10652;BME280;5374;42.742;23.266;2023-04-06T09:07:15;95158.56;;;10.26;49.65
10652;BME280;5374;42.742;23.266;2023-04-06T09:10:03;95152.84;;;10.08;50.07
10652;BME280;5374;42.742;23.266;2023-04-06T09:13:02;95149.16;;;9.82;51.01
10652;BME280;5374;42.742;23.266;2023-04-06T09:15:58;95152.00;;;9.75;50.31
10652;BME280;5374;42.742;23.266;2023-04-06T09:18:46;95138.13;;;9.63;49.79
10652;BME280;5374;42.742;23.266;2023-04-06T09:21:33;95128.25;;;9.58;50.93
10652;BME280;5374;42.742;23.266;2023-04-06T09:24:21;95137.75;;;9.54;48.25
10652;BME280;5374;42.742;23.266;2023-04-06T09:27:12;95092.91;;;9.21;49.39
10652;BME280;5374;42.742;23.266;2023-04-06T09:30:05;95116.59;;;9.33;49.46
10652;BME280;5374;42.742;23.266;2023-04-06T09:32:54;95115.69;;;9.49;50.64
10652;BME280;5374;42.742;23.266;2023-04-06T09:35:49;95140.25;;;9.93;50.44
10652;BME280;5374;42.742;23.266;2023-04-06T09:38:37;95135.03;;;9.71;49.55
10652;BME280;5374;42.742;23.266;2023-04-06T09:41:26;95128.69;;;9.45;50.35
10652;BME280;5374;42.742;23.266;2023-04-06T09:44:13;95136.81;;;9.66;49.14
10652;BME280;5374;42.742;23.266;2023-04-06T09:47:04;95133.31;;;9.60;50.38
10652;BME280;5374;42.742;23.266;2023-04-06T09:49:56;95147.50;;;9.49;49.43
10652;BME280;5374;42.742;23.266;2023-04-06T09:52:47;95138.91;;;9.37;50.32
10652;BME280;5374;42.742;23.266;2023-04-06T09:55:42;95123.41;;;9.50;49.98
10652;BME280;5374;42.742;23.266;2023-04-06T09:58:33;95131.72;;;9.59;50.23
10652;BME280;5374;42.742;23.266;2023-04-06T10:01:21;95135.16;;;9.59;49.85
10652;BME280;5374;42.742;23.266;2023-04-06T10:04:20;95146.66;;;9.43;49.76
10652;BME280;5374;42.742;23.266;2023-04-06T10:07:09;95138.25;;;9.51;49.71
10652;BME280;5374;42.742;23.266;2023-04-06T10:09:59;95138.56;;;9.55;49.61
10652;BME280;5374;42.742;23.266;2023-04-06T10:12:48;95134.75;;;9.73;48.98
10652;BME280;5374;42.742;23.266;2023-04-06T10:15:37;95140.16;;;9.83;48.26
10652;BME280;5374;42.742;23.266;2023-04-06T10:18:25;95112.66;;;9.94;47.96
10652;BME280;5374;42.742;23.266;2023-04-06T10:21:16;95108.53;;;9.76;47.61
10652;BME280;5374;42.742;23.266;2023-04-06T10:24:08;95121.31;;;10.48;47.90
10652;BME280;5374;42.742;23.266;2023-04-06T10:26:58;95131.53;;;10.72;47.05
10652;BME280;5374;42.742;23.266;2023-04-06T10:29:47;95130.09;;;10.54;46.89
10652;BME280;5374;42.742;23.266;2023-04-06T10:32:36;95126.78;;;10.32;47.00
10652;BME280;5374;42.742;23.266;2023-04-06T10:35:23;95099.78;;;10.45;47.92
10652;BME280;5374;42.742;23.266;2023-04-06T10:38:13;95120.72;;;10.41;47.52
10652;BME280;5374;42.742;23.266;2023-04-06T10:41:03;95080.91;;;10.41;46.99
10652;BME280;5374;42.742;23.266;2023-04-06T10:43:57;95118.41;;;10.50;47.58
10652;BME280;5374;42.742;23.266;2023-04-06T10:46:52;95108.94;;;10.69;46.45
10652;BME280;5374;42.742;23.266;2023-04-06T10:49:39;95105.81;;;10.77;46.01
10652;BME280;5374;42.742;23.266;2023-04-06T10:52:27;95114.75;;;10.61;45.83
10652;BME280;5374;42.742;23.266;2023-04-06T10:55:16;95105.63;;;10.47;46.76
10652;BME280;5374;42.742;23.266;2023-04-06T10:58:06;95118.50;;;10.70;46.03
10652;BME280;5374;42.742;23.266;2023-04-06T11:00:54;95085.03;;;10.69;46.52
10652;BME280;5374;42.742;23.266;2023-04-06T11:03:45;95106.34;;;10.32;45.32
10652;BME280;5374;42.742;23.266;2023-04-06T11:06:32;95095.94;;;9.88;46.25
10652;BME280;5374;42.742;23.266;2023-04-06T11:09:24;95094.03;;;9.84;47.20
10652;BME280;5374;42.742;23.266;2023-04-06T11:12:22;95092.56;;;10.03;46.50
10652;BME280;5374;42.742;23.266;2023-04-06T11:15:11;95093.03;;;9.90;47.28
10652;BME280;5374;42.742;23.266;2023-04-06T11:18:03;95099.94;;;9.91;46.76
10652;BME280;5374;42.742;23.266;2023-04-06T11:20:50;95078.25;;;10.04;47.00
10652;BME280;5374;42.742;23.266;2023-04-06T11:23:38;95091.44;;;9.94;45.98
10652;BME280;5374;42.742;23.266;2023-04-06T11:26:25;95088.78;;;9.94;47.24
10652;BME280;5374;42.742;23.266;2023-04-06T11:29:15;95085.97;;;10.06;47.23
10652;BME280;5374;42.742;23.266;2023-04-06T11:32:03;95084.56;;;9.93;46.45
10652;BME280;5374;42.742;23.266;2023-04-06T11:34:51;95083.56;;;10.04;46.64
10652;BME280;5374;42.742;23.266;2023-04-06T11:37:38;95075.66;;;10.09;46.75
10652;BME280;5374;42.742;23.266;2023-04-06T11:40:25;95067.47;;;10.16;46.32
10652;BME280;5374;42.742;23.266;2023-04-06T11:43:15;95070.06;;;10.06;46.67
10652;BME280;5374;42.742;23.266;2023-04-06T11:46:04;95061.28;;;10.05;46.72
10652;BME280;5374;42.742;23.266;2023-04-06T11:48:52;95068.28;;;10.16;47.02
10652;BME280;5374;42.742;23.266;2023-04-06T11:51:46;95070.13;;;10.16;47.23
10652;BME280;5374;42.742;23.266;2023-04-06T11:54:34;95065.91;;;10.20;46.83
10652;BME280;5374;42.742;23.266;2023-04-06T11:57:22;95050.09;;;10.35;46.57
10652;BME280;5374;42.742;23.266;2023-04-06T12:00:11;95034.19;;;10.35;45.99
10652;BME280;5374;42.742;23.266;2023-04-06T12:02:59;95047.25;;;10.52;45.54
10652;BME280;5374;42.742;23.266;2023-04-06T12:05:47;94942.31;;;9.77;45.35
10652;BME280;5374;42.742;23.266;2023-04-06T12:08:35;95056.34;;;10.66;46.15
10652;BME280;5374;42.742;23.266;2023-04-06T12:11:22;95056.88;;;10.68;45.36
10652;BME280;5374;42.742;23.266;2023-04-06T12:14:09;95046.97;;;10.48;45.46
10652;BME280;5374;42.742;23.266;2023-04-06T12:16:56;95036.31;;;10.43;45.38
10652;BME280;5374;42.742;23.266;2023-04-06T12:19:45;95040.88;;;10.48;46.02
10652;BME280;5374;42.742;23.266;2023-04-06T12:22:33;95031.38;;;10.67;45.93
10652;BME280;5374;42.742;23.266;2023-04-06T12:25:20;95045.16;;;10.54;45.24
10652;BME280;5374;42.742;23.266;2023-04-06T12:28:07;95048.53;;;10.39;45.63
10652;BME280;5374;42.742;23.266;2023-04-06T12:30:54;95050.41;;;10.39;45.67
10652;BME280;5374;42.742;23.266;2023-04-06T12:33:42;95009.84;;;10.06;45.78
10652;BME280;5374;42.742;23.266;2023-04-06T12:36:31;95045.59;;;10.36;46.25
10652;BME280;5374;42.742;23.266;2023-04-06T12:39:19;95045.31;;;10.32;45.73
10652;BME280;5374;42.742;23.266;2023-04-06T12:42:07;95052.00;;;10.45;46.14
10652;BME280;5374;42.742;23.266;2023-04-06T12:44:54;95032.03;;;9.95;46.42
10652;BME280;5374;42.742;23.266;2023-04-06T12:47:42;95041.75;;;10.16;45.93
10652;BME280;5374;42.742;23.266;2023-04-06T12:50:29;95044.41;;;10.16;46.92
10652;BME280;5374;42.742;23.266;2023-04-06T12:53:17;95020.59;;;10.26;46.11
10652;BME280;5374;42.742;23.266;2023-04-06T12:56:12;95007.63;;;10.30;45.09
10652;BME280;5374;42.742;23.266;2023-04-06T12:58:59;95025.72;;;10.01;45.70
10652;BME280;5374;42.742;23.266;2023-04-06T13:01:47;95023.69;;;10.13;46.23
10652;BME280;5374;42.742;23.266;2023-04-06T13:04:34;95027.88;;;10.04;46.34
10652;BME280;5374;42.742;23.266;2023-04-06T13:07:21;95031.09;;;10.11;45.76
10652;BME280;5374;42.742;23.266;2023-04-06T13:10:10;95015.66;;;10.03;46.30
10652;BME280;5374;42.742;23.266;2023-04-06T13:12:57;95037.63;;;9.99;45.65
10652;BME280;5374;42.742;23.266;2023-04-06T13:15:44;95015.91;;;10.02;46.63
10652;BME280;5374;42.742;23.266;2023-04-06T13:18:32;95022.97;;;9.86;45.68
10652;BME280;5374;42.742;23.266;2023-04-06T13:21:20;94996.38;;;9.76;45.81
10652;BME280;5374;42.742;23.266;2023-04-06T13:24:07;95023.94;;;9.75;45.32
10652;BME280;5374;42.742;23.266;2023-04-06T13:26:56;95011.19;;;9.72;45.79
10652;BME280;5374;42.742;23.266;2023-04-06T13:29:43;95012.97;;;9.93;46.53
10652;BME280;5374;42.742;23.266;2023-04-06T13:32:30;95019.84;;;9.94;45.42
10652;BME280;5374;42.742;23.266;2023-04-06T13:35:18;95012.38;;;9.86;45.49
10652;BME280;5374;42.742;23.266;2023-04-06T13:38:06;95012.91;;;9.88;44.55
10652;BME280;5374;42.742;23.266;2023-04-06T13:40:53;95015.53;;;9.83;44.83
10652;BME280;5374;42.742;23.266;2023-04-06T13:43:41;95024.56;;;9.87;43.40
10652;BME280;5374;42.742;23.266;2023-04-06T13:46:28;95025.00;;;9.74;43.95
10652;BME280;5374;42.742;23.266;2023-04-06T13:49:15;95016.22;;;9.68;45.38
10652;BME280;5374;42.742;23.266;2023-04-06T13:52:03;94957.31;;;9.24;46.97
10652;BME280;5374;42.742;23.266;2023-04-06T13:54:50;95018.25;;;9.56;46.20
10652;BME280;5374;42.742;23.266;2023-04-06T13:57:38;94995.72;;;9.21;44.71
10652;BME280;5374;42.742;23.266;2023-04-06T14:00:26;95019.78;;;9.20;44.50
10652;BME280;5374;42.742;23.266;2023-04-06T14:03:14;95017.75;;;9.00;45.16
10652;BME280;5374;42.742;23.266;2023-04-06T14:06:10;95011.09;;;8.98;45.64
10652;BME280;5374;42.742;23.266;2023-04-06T14:08:57;95024.91;;;9.00;46.41
10652;BME280;5374;42.742;23.266;2023-04-06T14:11:45;95011.41;;;9.01;45.77
10652;BME280;5374;42.742;23.266;2023-04-06T14:14:32;95009.38;;;8.86;45.30
10652;BME280;5374;42.742;23.266;2023-04-06T14:17:23;95014.22;;;8.68;46.09
10652;BME280;5374;42.742;23.266;2023-04-06T14:20:11;95017.66;;;8.68;46.62
10652;BME280;5374;42.742;23.266;2023-04-06T14:23:02;95011.56;;;8.68;48.28
10652;BME280;5374;42.742;23.266;2023-04-06T14:25:50;95020.00;;;8.65;49.76
10652;BME280;5374;42.742;23.266;2023-04-06T14:28:37;95005.09;;;8.58;48.32
10652;BME280;5374;42.742;23.266;2023-04-06T14:31:25;94985.88;;;8.41;47.66
10652;BME280;5374;42.742;23.266;2023-04-06T14:34:14;95011.97;;;8.54;48.87
10652;BME280;5374;42.742;23.266;2023-04-06T14:37:02;94956.81;;;8.24;49.52
10652;BME280;5374;42.742;23.266;2023-04-06T14:39:49;95019.53;;;8.46;49.56
10652;BME280;5374;42.742;23.266;2023-04-06T14:42:36;95011.72;;;8.34;49.82
10652;BME280;5374;42.742;23.266;2023-04-06T14:45:24;94981.97;;;8.05;49.82
10652;BME280;5374;42.742;23.266;2023-04-06T14:48:11;94995.19;;;8.05;49.90
10652;BME280;5374;42.742;23.266;2023-04-06T14:51:00;94966.84;;;7.62;49.87
10652;BME280;5374;42.742;23.266;2023-04-06T14:53:47;94975.88;;;7.66;49.96
10652;BME280;5374;42.742;23.266;2023-04-06T14:56:35;94947.88;;;7.32;49.94
10652;BME280;5374;42.742;23.266;2023-04-06T14:59:25;94959.25;;;7.32;50.29
10652;BME280;5374;42.742;23.266;2023-04-06T15:02:12;94939.97;;;6.98;51.02